createdAt,value
2022-12-31T00:00:16.318Z,100214.00
2022-12-31T00:02:43.265Z,100213.00
2022-12-31T00:05:10.669Z,100233.00
2022-12-31T00:10:05.069Z,100221.00
2022-12-31T00:12:31.961Z,100226.00
2022-12-31T00:14:58.711Z,100231.00
2022-12-31T00:17:25.467Z,100237.00
2022-12-31T00:19:52.216Z,100241.00
2022-12-31T00:22:18.981Z,100237.00
2022-12-31T00:24:45.704Z,100237.00
2022-12-31T00:27:12.464Z,100248.00
2022-12-31T00:29:39.861Z,100250.00
2022-12-31T00:32:06.663Z,100253.00
2022-12-31T00:34:33.623Z,100249.00
2022-12-31T00:37:00.424Z,100250.00
2022-12-31T00:39:27.175Z,100254.00
2022-12-31T00:41:53.890Z,100251.00
2022-12-31T00:44:20.708Z,100247.00
2022-12-31T00:46:48.281Z,100243.00
2022-12-31T00:49:15.394Z,100239.00
2022-12-31T00:51:42.223Z,100242.00
2022-12-31T00:54:10.051Z,100239.00
2022-12-31T00:56:36.780Z,100246.00
2022-12-31T00:59:03.724Z,100259.00
2022-12-31T01:01:38.236Z,100266.00
2022-12-31T01:04:15.252Z,100264.00
2022-12-31T01:06:43.925Z,100266.00
2022-12-31T01:09:13.899Z,100288.00
2022-12-31T01:11:40.874Z,100269.00
2022-12-31T01:14:16.044Z,100290.00
2022-12-31T01:16:51.396Z,100288.00
2022-12-31T01:19:24.635Z,100295.00
2022-12-31T01:21:52.810Z,100290.00
2022-12-31T01:24:20.402Z,100296.00
2022-12-31T01:26:47.752Z,100292.00
2022-12-31T01:29:16.835Z,100293.00
2022-12-31T01:31:43.806Z,100295.00
2022-12-31T01:34:10.697Z,100311.00
2022-12-31T01:36:39.192Z,100299.00
2022-12-31T01:39:08.705Z,100295.00
2022-12-31T01:41:40.785Z,100303.00
2022-12-31T01:44:13.580Z,100306.00
2022-12-31T01:46:47.036Z,100309.00
2022-12-31T01:49:31.960Z,100322.00
2022-12-31T01:52:23.807Z,100312.00
2022-12-31T01:55:01.568Z,100313.00
2022-12-31T01:57:28.614Z,100321.00
2022-12-31T01:59:57.295Z,100321.00
2022-12-31T02:02:24.451Z,100300.00
2022-12-31T02:04:55.669Z,100307.00
2022-12-31T02:07:23.408Z,100317.00
2022-12-31T02:09:50.263Z,100326.00
2022-12-31T02:12:17.017Z,100321.00
2022-12-31T02:14:48.627Z,100317.00
2022-12-31T02:17:23.852Z,100332.00
2022-12-31T02:20:31.031Z,100326.00
2022-12-31T02:23:36.313Z,100332.00
2022-12-31T02:26:21.526Z,100333.00
2022-12-31T02:29:27.663Z,100333.00
2022-12-31T02:32:02.744Z,100338.00
2022-12-31T02:34:50.684Z,100330.00
2022-12-31T02:37:21.501Z,100317.00
2022-12-31T02:39:49.471Z,100324.00
2022-12-31T02:42:16.934Z,100308.00
2022-12-31T02:44:43.670Z,100310.00
2022-12-31T02:47:22.833Z,100307.00
2022-12-31T02:50:28.914Z,100320.00
2022-12-31T02:53:41.781Z,100310.00
2022-12-31T02:56:36.267Z,100307.00
2022-12-31T02:59:46.545Z,100314.00
2022-12-31T03:02:19.557Z,100322.00
2022-12-31T03:04:56.755Z,100322.00
2022-12-31T03:07:31.634Z,100319.00
2022-12-31T03:09:59.342Z,100311.00
2022-12-31T03:12:48.750Z,100304.00
2022-12-31T03:15:31.784Z,100303.00
2022-12-31T03:18:09.041Z,100319.00
2022-12-31T03:21:05.045Z,100311.00
2022-12-31T03:23:39.127Z,100317.00
2022-12-31T03:26:13.110Z,100314.00
2022-12-31T03:28:43.389Z,100317.00
2022-12-31T03:31:10.149Z,100312.00
2022-12-31T03:33:40.745Z,100306.00
2022-12-31T03:36:13.558Z,100303.00
2022-12-31T03:38:41.392Z,100309.00
2022-12-31T03:41:11.352Z,100306.00
2022-12-31T03:43:38.732Z,100309.00
2022-12-31T03:46:06.446Z,100307.00
2022-12-31T03:48:33.265Z,100289.00
2022-12-31T03:51:00.389Z,100287.00
2022-12-31T03:53:27.379Z,100280.00
2022-12-31T03:55:54.658Z,100279.00
2022-12-31T03:58:22.294Z,100275.00
2022-12-31T04:00:49.843Z,100271.00
2022-12-31T04:03:16.946Z,100267.00
2022-12-31T04:05:43.686Z,100263.00
2022-12-31T04:08:10.412Z,100263.00
2022-12-31T04:10:37.150Z,100270.00
2022-12-31T04:13:04.845Z,100282.00
2022-12-31T04:15:32.054Z,100278.00
2022-12-31T04:17:58.804Z,100285.00
2022-12-31T04:20:25.580Z,100273.00
2022-12-31T04:22:52.347Z,100280.00
2022-12-31T04:25:19.154Z,100275.00
2022-12-31T04:27:45.887Z,100275.00
2022-12-31T04:30:13.885Z,100272.00
2022-12-31T04:32:41.581Z,100262.00
2022-12-31T04:35:10.166Z,100273.00
2022-12-31T04:37:36.916Z,100284.00
2022-12-31T04:40:06.171Z,100288.00
2022-12-31T04:42:34.822Z,100289.00
2022-12-31T04:45:01.591Z,100277.00
2022-12-31T04:47:28.324Z,100269.00
2022-12-31T04:49:55.070Z,100264.00
2022-12-31T04:52:23.405Z,100268.00
2022-12-31T04:54:50.224Z,100254.00
2022-12-31T04:57:17.368Z,100240.00
2022-12-31T04:59:44.114Z,100238.00
2022-12-31T05:02:11.023Z,100230.00
2022-12-31T05:04:37.972Z,100235.00
2022-12-31T05:07:04.727Z,100233.00
2022-12-31T05:09:31.523Z,100238.00
2022-12-31T05:11:58.351Z,100220.00
2022-12-31T05:14:25.310Z,100231.00
2022-12-31T05:16:52.487Z,100225.00
2022-12-31T05:19:19.381Z,100226.00
2022-12-31T05:22:06.058Z,100228.00
2022-12-31T05:24:32.893Z,100239.00
2022-12-31T05:26:59.691Z,100234.00
2022-12-31T05:29:26.614Z,100235.00
2022-12-31T05:31:53.396Z,100238.00
2022-12-31T05:34:20.251Z,100240.00
2022-12-31T05:36:46.974Z,100246.00
2022-12-31T05:39:13.724Z,100260.00
2022-12-31T05:41:40.452Z,100260.00
2022-12-31T05:44:07.178Z,100248.00
2022-12-31T05:46:33.888Z,100229.00
2022-12-31T05:49:00.622Z,100231.00
2022-12-31T05:51:27.387Z,100212.00
2022-12-31T05:53:54.099Z,100202.00
2022-12-31T05:56:20.812Z,100208.00
2022-12-31T05:58:48.533Z,100201.00
2022-12-31T06:01:15.326Z,100206.00
2022-12-31T06:03:42.131Z,100201.00
2022-12-31T06:06:08.911Z,100198.00
2022-12-31T06:08:35.717Z,100180.00
2022-12-31T06:11:02.440Z,100187.00
2022-12-31T06:13:29.259Z,100175.00
2022-12-31T06:15:56.337Z,100172.00
2022-12-31T06:18:23.180Z,100169.00
2022-12-31T06:20:49.926Z,100164.00
2022-12-31T06:23:16.642Z,100164.00
2022-12-31T06:25:43.364Z,100154.00
2022-12-31T06:28:13.313Z,100152.00
2022-12-31T06:30:46.404Z,100159.00
2022-12-31T06:33:13.252Z,100172.00
2022-12-31T06:35:39.995Z,100161.00
2022-12-31T06:38:06.717Z,100163.00
2022-12-31T06:40:33.464Z,100160.00
2022-12-31T06:43:00.932Z,100168.00
2022-12-31T06:45:28.213Z,100159.00
2022-12-31T06:47:54.978Z,100166.00
2022-12-31T06:50:21.692Z,100173.00
2022-12-31T06:52:48.440Z,100179.00
2022-12-31T06:55:15.958Z,100167.00
2022-12-31T06:57:43.054Z,100156.00
2022-12-31T07:00:11.566Z,100152.00
2022-12-31T07:03:08.536Z,100158.00
2022-12-31T07:05:45.291Z,100159.00
2022-12-31T07:08:33.638Z,100153.00
2022-12-31T07:11:17.899Z,100154.00
2022-12-31T07:13:58.837Z,100143.00
2022-12-31T07:17:12.671Z,100146.00
2022-12-31T07:20:03.888Z,100140.00
2022-12-31T07:22:31.146Z,100145.00
2022-12-31T07:24:58.100Z,100137.00
2022-12-31T07:27:52.953Z,100137.00
2022-12-31T07:30:35.127Z,100147.00
2022-12-31T07:33:31.850Z,100144.00
2022-12-31T07:36:33.946Z,100147.00
2022-12-31T07:39:14.559Z,100153.00
2022-12-31T07:42:07.411Z,100153.00
2022-12-31T07:45:02.890Z,100155.00
2022-12-31T07:47:30.085Z,100161.00
2022-12-31T07:49:57.810Z,100147.00
2022-12-31T07:52:25.264Z,100156.00
2022-12-31T07:54:52.044Z,100168.00
2022-12-31T07:57:23.434Z,100193.00
2022-12-31T08:00:06.620Z,100178.00
2022-12-31T08:03:28.445Z,100182.00
2022-12-31T08:06:25.674Z,100182.00
2022-12-31T08:09:18.083Z,100186.00
2022-12-31T08:12:00.671Z,100184.00
2022-12-31T08:14:29.626Z,100182.00
2022-12-31T08:16:57.320Z,100179.00
2022-12-31T08:19:30.449Z,100176.00
2022-12-31T08:22:21.112Z,100180.00
2022-12-31T08:25:31.495Z,100173.00
2022-12-31T08:28:05.459Z,100177.00
2022-12-31T08:31:05.382Z,100189.00
2022-12-31T08:33:52.332Z,100185.00
2022-12-31T08:36:59.796Z,100181.00
2022-12-31T08:39:52.032Z,100183.00
2022-12-31T08:42:45.131Z,100193.00
2022-12-31T08:45:28.861Z,100195.00
2022-12-31T08:48:18.684Z,100183.00
2022-12-31T08:50:45.749Z,100180.00
2022-12-31T08:53:12.750Z,100193.00
2022-12-31T08:55:42.047Z,100200.00
2022-12-31T08:58:53.220Z,100195.00
2022-12-31T09:01:26.195Z,100200.00
2022-12-31T09:04:09.848Z,100206.00
2022-12-31T09:06:48.800Z,100192.00
2022-12-31T09:09:52.570Z,100190.00
2022-12-31T09:12:33.443Z,100208.00
2022-12-31T09:15:16.903Z,100206.00
2022-12-31T09:17:50.851Z,100200.00
2022-12-31T09:20:41.850Z,100193.00
2022-12-31T09:23:12.251Z,100213.00
2022-12-31T09:26:19.428Z,100208.00
2022-12-31T09:29:24.274Z,100196.00
2022-12-31T09:31:56.657Z,100186.00
2022-12-31T09:34:56.546Z,100185.00
2022-12-31T09:37:50.606Z,100185.00
2022-12-31T09:40:38.082Z,100194.00
2022-12-31T09:44:02.875Z,100186.00
2022-12-31T09:47:23.568Z,100183.00
2022-12-31T09:50:22.696Z,100172.00
2022-12-31T09:53:16.400Z,100179.00
2022-12-31T09:55:59.585Z,100178.00
2022-12-31T09:58:43.938Z,100183.00
2022-12-31T10:01:44.615Z,100173.00
2022-12-31T10:04:38.794Z,100158.00
2022-12-31T10:07:40.009Z,100176.00
2022-12-31T10:10:24.321Z,100185.00
2022-12-31T10:13:08.190Z,100174.00
2022-12-31T10:16:15.102Z,100180.00
2022-12-31T10:19:23.226Z,100183.00
2022-12-31T10:22:38.111Z,100186.00
2022-12-31T10:25:49.008Z,100215.00
2022-12-31T10:28:49.993Z,100207.00
2022-12-31T10:31:34.943Z,100214.00
2022-12-31T10:34:18.732Z,100203.00
2022-12-31T10:37:06.155Z,100214.00
2022-12-31T10:40:04.736Z,100223.00
2022-12-31T10:43:02.520Z,100218.00
2022-12-31T10:45:58.467Z,100236.00
2022-12-31T10:49:15.666Z,100237.00
2022-12-31T10:52:35.637Z,100257.00
2022-12-31T10:55:25.448Z,100252.00
2022-12-31T10:58:28.569Z,100261.00
2022-12-31T11:01:16.608Z,100271.00
2022-12-31T11:04:35.221Z,100273.00
2022-12-31T11:07:35.696Z,100273.00
2022-12-31T11:10:54.447Z,100274.00
2022-12-31T11:13:53.272Z,100273.00
2022-12-31T11:16:49.702Z,100267.00
2022-12-31T11:19:36.547Z,100281.00
2022-12-31T11:22:41.847Z,100271.00
2022-12-31T11:25:11.599Z,100269.00
2022-12-31T11:28:16.335Z,100272.00
2022-12-31T11:31:16.260Z,100272.00
2022-12-31T11:34:49.248Z,100269.00
2022-12-31T11:37:35.046Z,100266.00
2022-12-31T11:40:28.250Z,100257.00
2022-12-31T11:43:20.014Z,100244.00
2022-12-31T11:46:16.598Z,100250.00
2022-12-31T11:49:12.800Z,100242.00
2022-12-31T11:52:18.240Z,100240.00
2022-12-31T11:55:23.100Z,100233.00
2022-12-31T11:57:51.344Z,100243.00
2022-12-31T12:00:24.785Z,100236.00
2022-12-31T12:03:04.861Z,100231.00
2022-12-31T12:05:34.841Z,100235.00
2022-12-31T12:08:02.360Z,100246.00
2022-12-31T12:10:37.102Z,100241.00
2022-12-31T12:13:23.481Z,100236.00
2022-12-31T12:15:56.551Z,100235.00
2022-12-31T12:18:29.802Z,100226.00
2022-12-31T12:21:19.954Z,100236.00
2022-12-31T12:24:17.297Z,100250.00
2022-12-31T12:26:45.500Z,100240.00
2022-12-31T12:29:20.703Z,100242.00
2022-12-31T12:32:00.725Z,100240.00
2022-12-31T12:34:45.889Z,100239.00
2022-12-31T12:37:34.445Z,100239.00
2022-12-31T12:40:18.151Z,100242.00
2022-12-31T12:42:53.855Z,100233.00
2022-12-31T12:45:25.879Z,100237.00
2022-12-31T12:48:21.714Z,100227.00
2022-12-31T12:50:49.873Z,100234.00
2022-12-31T12:54:03.015Z,100229.00
2022-12-31T12:56:57.101Z,100216.00
2022-12-31T13:00:09.880Z,100225.00
2022-12-31T13:03:17.648Z,100231.00
2022-12-31T13:06:08.636Z,100228.00
2022-12-31T13:09:20.942Z,100238.00
2022-12-31T13:12:25.948Z,100231.00
2022-12-31T13:15:06.370Z,100231.00
2022-12-31T13:17:48.143Z,100227.00
2022-12-31T13:20:40.830Z,100233.00
2022-12-31T13:23:39.449Z,100250.00
2022-12-31T13:26:21.315Z,100250.00
2022-12-31T13:28:52.671Z,100257.00
2022-12-31T13:31:30.487Z,100252.00
2022-12-31T13:34:06.283Z,100249.00
2022-12-31T13:36:40.505Z,100247.00
2022-12-31T13:39:19.217Z,100261.00
2022-12-31T13:41:58.247Z,100257.00
2022-12-31T13:44:35.136Z,100254.00
2022-12-31T13:47:33.484Z,100257.00
2022-12-31T13:50:14.700Z,100266.00
2022-12-31T13:53:21.453Z,100258.00
2022-12-31T13:56:05.837Z,100279.00
2022-12-31T13:58:48.655Z,100294.00
2022-12-31T14:01:33.814Z,100311.00
2022-12-31T14:04:18.717Z,100325.00
2022-12-31T14:07:19.597Z,100324.00
2022-12-31T14:09:46.673Z,100355.00
2022-12-31T14:12:53.770Z,100357.00
2022-12-31T14:15:35.447Z,100368.00
2022-12-31T14:18:28.125Z,100370.00
2022-12-31T14:21:15.873Z,100373.00
2022-12-31T14:24:03.376Z,100390.00
2022-12-31T14:26:45.945Z,100395.00
2022-12-31T14:29:14.692Z,100384.00
2022-12-31T14:31:50.092Z,100386.00
2022-12-31T14:34:35.679Z,100382.00
2022-12-31T14:37:14.946Z,100384.00
2022-12-31T14:40:10.039Z,100388.00
2022-12-31T14:43:05.963Z,100385.00
2022-12-31T14:45:55.755Z,100410.00
2022-12-31T14:48:53.350Z,100414.00
2022-12-31T14:51:20.218Z,100403.00
2022-12-31T14:53:56.722Z,100412.00
2022-12-31T14:56:40.299Z,100411.00
2022-12-31T14:59:29.134Z,100419.00
2022-12-31T15:01:58.784Z,100424.00
2022-12-31T15:04:45.593Z,100424.00
2022-12-31T15:07:49.044Z,100423.00
2022-12-31T15:10:52.780Z,100420.00
2022-12-31T15:13:48.393Z,100423.00
2022-12-31T15:16:51.792Z,100428.00
2022-12-31T15:19:19.234Z,100427.00
2022-12-31T15:22:27.929Z,100431.00
2022-12-31T15:24:55.070Z,100421.00
2022-12-31T15:27:46.665Z,100419.00
2022-12-31T15:30:28.624Z,100424.00
2022-12-31T15:33:03.036Z,100435.00
2022-12-31T15:35:44.237Z,100434.00
2022-12-31T15:38:10.928Z,100446.00
2022-12-31T15:41:18.741Z,100439.00
2022-12-31T15:44:30.137Z,100446.00
2022-12-31T15:47:14.077Z,100439.00
2022-12-31T15:49:46.317Z,100440.00
2022-12-31T15:52:33.250Z,100434.00
2022-12-31T15:55:05.549Z,100438.00
2022-12-31T15:57:41.437Z,100424.00
2022-12-31T16:00:21.316Z,100442.00
2022-12-31T16:02:52.518Z,100423.00
2022-12-31T16:05:27.707Z,100444.00
2022-12-31T16:07:59.358Z,100451.00
2022-12-31T16:10:33.078Z,100446.00
2022-12-31T16:12:59.982Z,100449.00
2022-12-31T16:15:33.932Z,100464.00
2022-12-31T16:18:10.631Z,100465.00
2022-12-31T16:20:43.554Z,100459.00
2022-12-31T16:23:25.543Z,100474.00
2022-12-31T16:25:58.442Z,100448.00
2022-12-31T16:28:31.951Z,100461.00
2022-12-31T16:31:08.544Z,100462.00
2022-12-31T16:33:35.358Z,100468.00
2022-12-31T16:36:02.537Z,100463.00
2022-12-31T16:38:37.688Z,100468.00
2022-12-31T16:41:21.347Z,100460.00
2022-12-31T16:43:50.234Z,100465.00
2022-12-31T16:46:28.089Z,100472.00
2022-12-31T16:48:58.211Z,100465.00
2022-12-31T16:51:31.368Z,100467.00
2022-12-31T16:53:59.442Z,100473.00
2022-12-31T16:56:38.865Z,100466.00
2022-12-31T16:59:33.362Z,100462.00
2022-12-31T17:02:11.419Z,100458.00
2022-12-31T17:04:45.093Z,100448.00
2022-12-31T17:07:42.228Z,100455.00
2022-12-31T17:10:08.875Z,100461.00
2022-12-31T17:13:17.552Z,100463.00
2022-12-31T17:15:43.650Z,100454.00
2022-12-31T17:18:20.863Z,100465.00
2022-12-31T17:20:51.422Z,100471.00
2022-12-31T17:23:26.609Z,100461.00
2022-12-31T17:26:08.314Z,100454.00
2022-12-31T17:28:49.767Z,100469.00
2022-12-31T17:31:39.273Z,100485.00
2022-12-31T17:34:14.989Z,100479.00
2022-12-31T17:36:59.459Z,100487.00
2022-12-31T17:39:39.366Z,100481.00
2022-12-31T17:42:10.285Z,100485.00
2022-12-31T17:44:42.468Z,100488.00
2022-12-31T17:47:14.171Z,100500.00
2022-12-31T17:49:45.613Z,100489.00
2022-12-31T17:52:15.717Z,100500.00
2022-12-31T17:54:43.046Z,100491.00
2022-12-31T17:57:24.642Z,100499.00
2022-12-31T17:59:51.537Z,100491.00
2022-12-31T18:02:18.430Z,100477.00
2022-12-31T18:04:45.960Z,100478.00
2022-12-31T18:07:12.668Z,100485.00
2022-12-31T18:09:39.397Z,100492.00
2022-12-31T18:12:07.106Z,100487.00
2022-12-31T18:14:33.929Z,100491.00
2022-12-31T18:17:00.893Z,100484.00
2022-12-31T18:20:02.785Z,100500.00
2022-12-31T18:22:16.466Z,100488.00
2022-12-31T18:24:44.207Z,100487.00
2022-12-31T18:27:17.443Z,100494.00
2022-12-31T18:29:45.355Z,100489.00
2022-12-31T18:32:25.646Z,100495.00
2022-12-31T18:34:52.802Z,100498.00
2022-12-31T18:37:22.231Z,100506.00
2022-12-31T18:39:49.489Z,100500.00
2022-12-31T18:42:19.009Z,100510.00
2022-12-31T18:44:46.859Z,100502.00
2022-12-31T18:47:23.104Z,100504.00
2022-12-31T18:49:50.927Z,100510.00
2022-12-31T18:52:22.166Z,100509.00
2022-12-31T18:54:49.512Z,100488.00
2022-12-31T18:57:16.589Z,100497.00
2022-12-31T18:59:43.538Z,100511.00
2022-12-31T19:02:20.153Z,100508.00
2022-12-31T19:04:47.994Z,100507.00
2022-12-31T19:07:14.845Z,100511.00
2022-12-31T19:09:46.077Z,100498.00
2022-12-31T19:12:15.038Z,100504.00
2022-12-31T19:14:44.091Z,100503.00
2022-12-31T19:19:36.547Z,100512.00
2022-12-31T19:22:03.292Z,100515.00
2022-12-31T19:24:30.151Z,100509.00
2022-12-31T19:26:56.987Z,100516.00
2022-12-31T19:29:27.608Z,100522.00
2022-12-31T19:31:54.762Z,100507.00
2022-12-31T19:34:21.858Z,100502.00
2022-12-31T19:36:49.928Z,100502.00
2022-12-31T19:39:20.587Z,100514.00
2022-12-31T19:41:52.905Z,100499.00
2022-12-31T19:44:23.120Z,100499.00
2022-12-31T19:46:49.921Z,100490.00
2022-12-31T19:49:16.674Z,100497.00
2022-12-31T19:51:43.804Z,100483.00
2022-12-31T19:54:13.549Z,100490.00
2022-12-31T19:56:41.041Z,100483.00
2022-12-31T19:59:10.755Z,100490.00
2022-12-31T20:01:38.227Z,100500.00
2022-12-31T20:04:05.571Z,100484.00
2022-12-31T20:06:32.389Z,100488.00
2022-12-31T20:08:59.148Z,100499.00
2022-12-31T20:11:26.020Z,100499.00
2022-12-31T20:13:54.005Z,100511.00
2022-12-31T20:16:27.150Z,100519.00
2022-12-31T20:18:54.493Z,100512.00
2022-12-31T20:21:26.193Z,100527.00
2022-12-31T20:23:54.728Z,100520.00
2022-12-31T20:26:24.571Z,100512.00
2022-12-31T20:28:52.128Z,100512.00
2022-12-31T20:31:24.089Z,100510.00
2022-12-31T20:33:50.990Z,100513.00
2022-12-31T20:36:17.777Z,100508.00
2022-12-31T20:38:45.535Z,100521.00
2022-12-31T20:41:16.508Z,100515.00
2022-12-31T20:43:44.220Z,100521.00
2022-12-31T20:46:16.110Z,100509.00
2022-12-31T20:48:44.955Z,100509.00
2022-12-31T20:51:14.144Z,100503.00
2022-12-31T20:53:55.109Z,100500.00
2022-12-31T20:56:23.334Z,100484.00
2022-12-31T20:58:50.584Z,100491.00
2022-12-31T21:01:18.476Z,100498.00
2022-12-31T21:04:05.480Z,100496.00
2022-12-31T21:06:34.698Z,100505.00
2022-12-31T21:09:04.304Z,100507.00
2022-12-31T21:11:50.158Z,100500.00
2022-12-31T21:14:16.905Z,100508.00
2022-12-31T21:16:43.665Z,100501.00
2022-12-31T21:19:10.570Z,100520.00
2022-12-31T21:21:37.598Z,100510.00
2022-12-31T21:24:04.773Z,100501.00
2022-12-31T21:26:31.664Z,100504.00
2022-12-31T21:28:58.888Z,100502.00
2022-12-31T21:31:25.675Z,100511.00
2022-12-31T21:33:52.783Z,100504.00
2022-12-31T21:36:19.828Z,100514.00
2022-12-31T21:38:46.578Z,100520.00
2022-12-31T21:41:35.013Z,100512.00
2022-12-31T21:44:02.668Z,100521.00
2022-12-31T21:46:29.915Z,100515.00
2022-12-31T21:49:00.305Z,100517.00
2022-12-31T21:51:28.602Z,100527.00
2022-12-31T21:53:55.815Z,100515.00
2022-12-31T21:56:22.902Z,100537.00
2022-12-31T21:59:16.751Z,100541.00
2022-12-31T22:02:02.485Z,100545.00
2022-12-31T22:05:02.070Z,100551.00
2022-12-31T22:07:16.366Z,100534.00
2022-12-31T22:09:43.161Z,100542.00
2022-12-31T22:12:09.958Z,100515.00
2022-12-31T22:14:36.746Z,100518.00
2022-12-31T22:17:03.698Z,100538.00
2022-12-31T22:19:30.488Z,100554.00
2022-12-31T22:21:57.248Z,100547.00
2022-12-31T22:24:24.006Z,100569.00
2022-12-31T22:26:52.083Z,100558.00
2022-12-31T22:29:19.781Z,100557.00
2022-12-31T22:31:46.535Z,100575.00
2022-12-31T22:34:13.340Z,100568.00
2022-12-31T22:36:40.122Z,100567.00
2022-12-31T22:39:06.865Z,100575.00
2022-12-31T22:41:34.960Z,100574.00
2022-12-31T22:44:04.930Z,100566.00
2022-12-31T22:46:34.105Z,100578.00
2022-12-31T22:49:02.876Z,100580.00
2022-12-31T22:51:57.536Z,100592.00
2022-12-31T22:54:18.099Z,100580.00
2022-12-31T22:56:44.986Z,100592.00
2022-12-31T22:59:11.692Z,100592.00
2022-12-31T23:01:38.680Z,100598.00
2022-12-31T23:04:05.641Z,100590.00
2022-12-31T23:06:32.815Z,100578.00
2022-12-31T23:09:18.128Z,100591.00
2022-12-31T23:11:44.859Z,100598.00
2022-12-31T23:14:35.998Z,100602.00
2022-12-31T23:17:29.434Z,100609.00
2022-12-31T23:20:15.923Z,100602.00
2022-12-31T23:23:01.504Z,100605.00
2022-12-31T23:25:30.576Z,100600.00
2022-12-31T23:27:57.300Z,100607.00
2022-12-31T23:30:24.536Z,100594.00
2022-12-31T23:32:51.303Z,100611.00
2022-12-31T23:35:18.062Z,100600.00
2022-12-31T23:37:44.841Z,100599.00
2022-12-31T23:40:18.955Z,100605.00
2022-12-31T23:42:47.883Z,100613.00
2022-12-31T23:45:15.423Z,100616.00
2022-12-31T23:47:42.157Z,100610.00
2022-12-31T23:50:09.174Z,100611.00
2022-12-31T23:52:36.036Z,100604.00
2022-12-31T23:55:03.694Z,100619.00
2022-12-31T23:57:30.589Z,100624.00
2022-12-31T23:59:57.396Z,100633.00
